Time;durP1;ratioP1;P1;durP2;ratioP2;P2;SDS_P1;SDS_P2;PMS_P1;PMS_P2;Temp;Humidity;BMP_temperature;BMP_pressure;BME280_temperature;BME280_humidity;BME280_pressure;Samples;Min_cycle;Max_cycle;Signal;HPM_P1;HPM_P2
2022/10/29 00:02:08;;;;;;;1.80;1.70;;;14.50;99.90;;;;;;5109088;28;20596;-82
2022/10/29 00:04:36;;;;;;;1.40;1.30;;;14.60;99.90;;;;;;5108773;28;20652;-82
2022/10/29 00:07:04;;;;;;;1.77;1.67;;;14.50;99.90;;;;;;5108006;28;20663;-81
2022/10/29 00:09:31;;;;;;;3.30;2.00;;;14.40;99.90;;;;;;5108828;28;20685;-81
2022/10/29 00:11:58;;;;;;;2.00;1.43;;;14.30;99.90;;;;;;5109030;28;20650;-81
2022/10/29 00:14:25;;;;;;;1.77;1.67;;;14.30;99.90;;;;;;5108703;28;20695;-81
2022/10/29 00:16:52;;;;;;;1.73;1.50;;;14.20;99.90;;;;;;5107883;28;20726;-81
2022/10/29 00:19:18;;;;;;;3.23;2.90;;;14.30;99.90;;;;;;5108559;28;20619;-82
2022/10/29 00:21:45;;;;;;;1.90;1.40;;;14.20;99.90;;;;;;5108952;28;20715;-81
2022/10/29 00:24:13;;;;;;;1.80;1.70;;;14.20;99.90;;;;;;5108903;28;20615;-82
2022/10/29 00:26:40;;;;;;;2.40;2.20;;;14.00;99.90;;;;;;5108127;28;20700;-82
2022/10/29 00:29:07;;;;;;;3.10;2.17;;;14.00;99.90;;;;;;5108440;28;20635;-82
2022/10/29 00:31:34;;;;;;;3.60;1.70;;;14.10;99.90;;;;;;5108618;28;20600;-81
2022/10/29 00:34:01;;;;;;;3.90;2.00;;;14.00;99.90;;;;;;5108303;28;20612;-81
2022/10/29 00:36:29;;;;;;;1.90;1.50;;;14.00;99.90;;;;;;5108140;28;20611;-83
2022/10/29 00:38:57;;;;;;;15.23;2.70;;;14.00;99.90;;;;;;5108274;28;21158;-82
2022/10/29 00:41:28;;;;;;;2.70;2.47;;;14.10;99.90;;;;;;5108726;28;20612;-81
2022/10/29 00:44:30;;;;;;;3.40;2.23;;;14.10;99.90;;;;;;5107992;28;20673;-81
2022/10/29 00:47:09;;;;;;;2.07;1.60;;;14.10;99.90;;;;;;5102669;28;20762;-81
2022/10/29 00:49:38;;;;;;;1.90;1.53;;;14.10;99.90;;;;;;5108457;28;21176;-81
2022/10/29 00:52:06;;;;;;;2.33;1.60;;;14.10;99.90;;;;;;5108729;28;20618;-81
2022/10/29 00:54:37;;;;;;;2.40;2.20;;;14.10;99.90;;;;;;5106531;28;20725;-82
2022/10/29 00:57:10;;;;;;;1.90;1.70;;;14.10;99.90;;;;;;5108161;28;20649;-82
2022/10/29 00:59:37;;;;;;;2.27;2.07;;;14.20;99.90;;;;;;5108320;28;20673;-82
2022/10/29 01:02:05;;;;;;;3.30;2.10;;;;;;;;;;5107511;28;21220;-82
2022/10/29 01:04:32;;;;;;;2.77;2.57;;;14.10;99.90;;;;;;5105967;28;20684;-83
2022/10/29 01:06:59;;;;;;;2.40;2.07;;;14.20;99.90;;;;;;5106727;28;20683;-82
2022/10/29 01:09:26;;;;;;;2.03;1.80;;;14.40;99.90;;;;;;5108958;28;20618;-81
2022/10/29 01:12:12;;;;;;;2.70;2.20;;;14.40;99.90;;;;;;5112198;28;21053;-82
2022/10/29 01:14:49;;;;;;;4.67;2.70;;;14.40;99.90;;;;;;5112178;28;20630;-81
2022/10/29 01:17:28;;;;;;;2.30;2.07;;;14.20;99.90;;;;;;5111302;28;20619;-81
2022/10/29 01:20:23;;;;;;;1.73;1.60;;;14.10;99.90;;;;;;5112328;28;20702;-81
2022/10/29 01:23:03;;;;;;;3.70;2.60;;;14.20;99.90;;;;;;5112373;28;20996;-82
2022/10/29 01:25:47;;;;;;;3.20;2.90;;;14.20;99.90;;;;;;5111875;28;20710;-84
2022/10/29 01:28:26;;;;;;;3.47;2.40;;;14.10;99.90;;;;;;5111625;28;20655;-82
2022/10/29 01:31:12;;;;;;;2.00;1.67;;;14.20;99.90;;;;;;5111666;28;20703;-81
2022/10/29 01:33:46;;;;;;;2.73;2.13;;;14.20;99.90;;;;;;5112082;27;21075;-82
2022/10/29 01:36:18;;;;;;;2.20;2.00;;;14.20;99.90;;;;;;5111405;28;20933;-81
2022/10/29 01:38:53;;;;;;;3.13;2.83;;;14.20;99.90;;;;;;5111939;28;20656;-81
2022/10/29 01:41:26;;;;;;;3.30;2.20;;;14.20;99.90;;;;;;5111661;28;20980;-82
2022/10/29 01:43:59;;;;;;;3.93;3.57;;;14.20;99.90;;;;;;5111820;28;20635;-82
2022/10/29 01:46:33;;;;;;;3.73;2.23;;;14.40;99.90;;;;;;5111468;28;20612;-82
2022/10/29 01:49:05;;;;;;;2.13;1.80;;;14.40;99.90;;;;;;5111742;28;20616;-82
2022/10/29 01:51:36;;;;;;;3.87;3.43;;;14.30;99.90;;;;;;5111212;28;20637;-82
2022/10/29 01:54:08;;;;;;;2.17;1.87;;;14.50;99.90;;;;;;5111498;28;20730;-82
2022/10/29 01:56:36;;;;;;;4.67;2.80;;;14.40;99.90;;;;;;5110446;28;20665;-82
2022/10/29 01:59:06;;;;;;;2.03;1.93;;;14.90;99.90;;;;;;5111147;28;20621;-81
2022/10/29 02:01:45;;;;;;;2.90;2.20;;;14.50;99.90;;;;;;5111311;28;20627;-81
2022/10/29 02:04:28;;;;;;;2.27;2.07;;;14.40;99.90;;;;;;5111030;28;20676;-81
2022/10/29 02:07:01;;;;;;;2.90;2.67;;;14.50;99.90;;;;;;5110252;28;20607;-82
2022/10/29 02:09:35;;;;;;;2.53;2.33;;;14.40;99.90;;;;;;5111462;28;20655;-81
2022/10/29 02:12:08;;;;;;;6.33;2.53;;;14.40;99.90;;;;;;5111262;28;20610;-81
2022/10/29 02:14:39;;;;;;;2.70;1.97;;;14.40;99.90;;;;;;5111142;28;20629;-81
2022/10/29 02:17:08;;;;;;;2.20;2.00;;;14.40;99.90;;;;;;5110256;28;20647;-81
2022/10/29 02:19:36;;;;;;;4.13;2.63;;;14.30;99.90;;;;;;5110565;28;20608;-82
2022/10/29 02:22:04;;;;;;;5.40;2.77;;;14.30;99.90;;;;;;5109452;28;20712;-81
2022/10/29 02:24:31;;;;;;;3.77;2.50;;;14.30;99.90;;;;;;5110492;28;20746;-82
2022/10/29 02:26:58;;;;;;;2.17;1.83;;;14.30;99.90;;;;;;5109849;28;20607;-81
2022/10/29 02:29:25;;;;;;;3.60;2.50;;;14.30;99.90;;;;;;5110627;28;21254;-81
2022/10/29 02:31:52;;;;;;;3.10;2.90;;;14.30;99.90;;;;;;5111325;28;20623;-81
2022/10/29 02:34:20;;;;;;;3.43;2.50;;;14.40;99.90;;;;;;5110189;28;20648;-81
2022/10/29 02:36:47;;;;;;;2.13;1.93;;;14.30;99.90;;;;;;5109964;28;20946;-81
2022/10/29 02:39:14;;;;;;;10.57;4.20;;;14.30;99.90;;;;;;5110607;28;20604;-82
2022/10/29 02:41:41;;;;;;;2.90;2.13;;;14.40;99.90;;;;;;5110589;28;20611;-81
2022/10/29 02:44:08;;;;;;;2.97;2.13;;;14.40;99.90;;;;;;5110573;28;20960;-81
2022/10/29 02:46:38;;;;;;;2.53;2.33;;;14.30;99.90;;;;;;5109804;28;20626;-82
2022/10/29 02:49:05;;;;;;;3.73;2.60;;;14.40;99.90;;;;;;5110017;28;20704;-81
2022/10/29 02:51:34;;;;;;;2.07;1.90;;;14.40;99.90;;;;;;5110310;28;20712;-81
2022/10/29 02:54:01;;;;;;;1.90;1.80;;;15.00;99.90;;;;;;5108533;28;21214;-81
2022/10/29 02:56:27;;;;;;;3.10;2.67;;;14.40;99.90;;;;;;5109895;28;20623;-81
2022/10/29 02:58:54;;;;;;;3.10;2.30;;;14.50;99.90;;;;;;5110098;28;21209;-82
2022/10/29 03:01:22;;;;;;;2.47;2.23;;;14.40;99.90;;;;;;5109844;28;21013;-82
2022/10/29 03:03:49;;;;;;;5.57;2.43;;;14.40;99.90;;;;;;5110236;28;20611;-81
2022/10/29 03:06:17;;;;;;;4.63;2.00;;;14.40;99.90;;;;;;5109462;28;20726;-81
2022/10/29 03:08:45;;;;;;;3.23;2.93;;;14.30;99.90;;;;;;5109688;28;20647;-81
2022/10/29 03:11:13;;;;;;;2.67;2.47;;;14.40;99.90;;;;;;5110161;28;20623;-82
2022/10/29 03:13:40;;;;;;;2.30;2.10;;;14.40;99.90;;;;;;5109975;28;20770;-82
2022/10/29 03:16:07;;;;;;;2.47;2.30;;;14.40;99.90;;;;;;5109434;28;21139;-81
2022/10/29 03:18:34;;;;;;;2.40;2.20;;;14.30;99.90;;;;;;5109413;28;20718;-81
2022/10/29 03:21:00;;;;;;;2.60;2.40;;;14.30;99.90;;;;;;5109597;28;20977;-82
2022/10/29 03:23:27;;;;;;;3.47;2.87;;;14.30;99.90;;;;;;5109554;28;20676;-81
2022/10/29 03:25:56;;;;;;;2.60;2.33;;;14.30;99.90;;;;;;5109493;28;20632;-81
2022/10/29 03:28:24;;;;;;;4.17;2.50;;;14.30;99.90;;;;;;5108629;28;21190;-81
2022/10/29 03:30:51;;;;;;;2.73;2.53;;;14.30;99.90;;;;;;5109350;28;20680;-81
2022/10/29 03:33:18;;;;;;;2.70;2.20;;;14.30;99.90;;;;;;5109208;28;20684;-81
2022/10/29 03:35:44;;;;;;;3.10;2.60;;;14.20;99.90;;;;;;5109102;28;20722;-81
2022/10/29 03:38:11;;;;;;;2.57;2.40;;;14.30;99.90;;;;;;5108748;28;20616;-82
2022/10/29 03:40:38;;;;;;;2.60;2.40;;;14.50;99.90;;;;;;5109831;28;20692;-81
2022/10/29 03:43:06;;;;;;;1.57;1.47;;;14.50;99.90;;;;;;5109354;28;20731;-82
2022/10/29 03:45:33;;;;;;;3.90;2.00;;;14.40;99.90;;;;;;5109442;28;20623;-82
2022/10/29 03:48:00;;;;;;;2.50;2.30;;;14.50;99.90;;;;;;5109063;28;20647;-83
2022/10/29 03:50:27;;;;;;;2.80;2.10;;;14.30;99.90;;;;;;5108829;28;20612;-83
2022/10/29 03:52:54;;;;;;;2.73;2.40;;;14.20;99.90;;;;;;5108715;28;20615;-81
2022/10/29 03:55:20;;;;;;;2.57;2.37;;;14.70;99.90;;;;;;5108514;28;20702;-82
2022/10/29 03:57:47;;;;;;;2.23;2.03;;;14.40;99.90;;;;;;5108285;28;20615;-82
2022/10/29 04:00:16;;;;;;;2.90;2.13;;;14.30;99.90;;;;;;5108805;28;21266;-81
2022/10/29 04:02:43;;;;;;;2.33;1.70;;;14.20;99.90;;;;;;5109320;28;20643;-82
2022/10/29 04:05:10;;;;;;;3.73;2.40;;;14.30;99.90;;;;;;5108775;28;20618;-81
2022/10/29 04:07:37;;;;;;;3.17;2.67;;;14.30;99.90;;;;;;5108173;28;20711;-82
2022/10/29 04:10:04;;;;;;;4.23;2.03;;;14.20;99.90;;;;;;5108488;28;20817;-83
2022/10/29 04:12:31;;;;;;;2.50;1.90;;;14.20;99.90;;;;;;5109238;28;21109;-82
2022/10/29 04:14:58;;;;;;;2.57;2.30;;;14.10;99.90;;;;;;5109520;28;21097;-81
2022/10/29 04:17:26;;;;;;;1.93;1.63;;;14.40;99.90;;;;;;5107916;28;20715;-81
2022/10/29 04:19:53;;;;;;;3.43;2.17;;;14.20;99.90;;;;;;5108125;28;21175;-81
2022/10/29 04:22:20;;;;;;;2.93;2.33;;;14.30;99.90;;;;;;5108260;28;20724;-81
2022/10/29 04:24:47;;;;;;;2.90;2.67;;;14.30;99.90;;;;;;5108109;28;20629;-81
2022/10/29 04:27:14;;;;;;;3.20;2.97;;;14.50;99.90;;;;;;5107799;28;20608;-81
2022/10/29 04:29:40;;;;;;;3.97;3.47;;;14.40;99.90;;;;;;5108764;28;20724;-82
2022/10/29 04:32:07;;;;;;;3.13;2.83;;;14.30;99.90;;;;;;5108558;28;20620;-81
2022/10/29 04:34:35;;;;;;;2.43;2.17;;;14.50;99.90;;;;;;5108394;28;21189;-81
2022/10/29 04:37:02;;;;;;;3.03;2.00;;;14.50;99.90;;;;;;5107807;28;20722;-82
2022/10/29 04:39:29;;;;;;;4.17;2.63;;;14.50;99.90;;;;;;5108312;28;20722;-81
2022/10/29 04:41:56;;;;;;;3.17;2.87;;;14.40;99.90;;;;;;5108256;28;20627;-81
2022/10/29 04:44:23;;;;;;;2.60;2.40;;;14.50;99.90;;;;;;5109238;28;20962;-82
2022/10/29 04:46:49;;;;;;;5.70;2.77;;;14.40;99.90;;;;;;5112063;28;20647;-81
2022/10/29 04:49:16;;;;;;;2.60;2.47;;;14.60;99.90;;;;;;5112727;28;20659;-81
2022/10/29 04:51:44;;;;;;;2.43;1.87;;;14.70;99.90;;;;;;5112174;28;20705;-81
2022/10/29 04:54:12;;;;;;;2.10;1.93;;;14.30;99.90;;;;;;5111351;28;20714;-81
2022/10/29 04:56:38;;;;;;;2.87;2.43;;;14.30;99.90;;;;;;5111587;28;21169;-81
2022/10/29 04:59:05;;;;;;;4.33;2.30;;;14.40;99.90;;;;;;5112486;28;21200;-81
2022/10/29 05:01:32;;;;;;;2.70;2.27;;;14.80;99.90;;;;;;5112595;28;20710;-81
2022/10/29 05:03:59;;;;;;;2.77;2.57;;;14.20;99.90;;;;;;5112358;28;20622;-82
2022/10/29 05:06:26;;;;;;;3.33;2.67;;;14.10;99.90;;;;;;5111898;28;20680;-82
2022/10/29 05:08:54;;;;;;;3.63;3.33;;;14.10;99.90;;;;;;5112049;28;20759;-82
2022/10/29 05:11:21;;;;;;;1.73;1.63;;;14.10;99.90;;;;;;5112018;28;20677;-81
2022/10/29 05:13:47;;;;;;;2.10;2.00;;;14.00;99.90;;;;;;5112415;28;20723;-82
2022/10/29 05:16:14;;;;;;;2.30;2.07;;;13.90;99.90;;;;;;5111590;28;20755;-82
2022/10/29 05:18:41;;;;;;;2.37;2.20;;;13.80;99.90;;;;;;5112032;28;20619;-82
2022/10/29 05:21:08;;;;;;;2.20;2.00;;;13.70;99.90;;;;;;5111969;28;20718;-81
2022/10/29 05:23:35;;;;;;;2.90;2.60;;;13.70;99.90;;;;;;5111673;28;20616;-82
2022/10/29 05:26:03;;;;;;;2.63;2.43;;;13.60;99.90;;;;;;5112074;28;20619;-82
2022/10/29 05:28:30;;;;;;;3.10;2.10;;;13.60;99.90;;;;;;5111260;28;20674;-82
2022/10/29 05:31:00;;;;;;;3.73;3.00;;;13.60;99.90;;;;;;5111994;28;20600;-81
2022/10/29 05:33:27;;;;;;;3.20;2.10;;;13.60;99.90;;;;;;5111289;28;20619;-81
2022/10/29 05:35:54;;;;;;;6.23;2.77;;;13.50;99.90;;;;;;5112138;28;20618;-83
2022/10/29 05:38:21;;;;;;;5.57;3.00;;;13.50;99.90;;;;;;5111066;28;20619;-82
2022/10/29 05:40:48;;;;;;;6.43;2.57;;;13.60;99.90;;;;;;5111693;28;20611;-83
2022/10/29 05:43:17;;;;;;;3.00;2.70;;;13.60;99.90;;;;;;5111646;28;20719;-83
2022/10/29 05:45:45;;;;;;;3.33;2.70;;;14.60;99.90;;;;;;5111491;28;20616;-84
2022/10/29 05:48:12;;;;;;;3.07;2.53;;;13.70;99.90;;;;;;5110446;28;20666;-83
2022/10/29 05:50:39;;;;;;;2.70;2.30;;;13.40;99.90;;;;;;5111401;28;20630;-83
2022/10/29 05:53:09;;;;;;;2.67;2.47;;;13.40;99.90;;;;;;5110545;28;21001;-83
2022/10/29 05:55:36;;;;;;;2.30;2.20;;;13.50;99.90;;;;;;5110685;28;20726;-83
2022/10/29 05:58:04;;;;;;;4.03;2.83;;;13.50;99.90;;;;;;5110763;28;20624;-83
2022/10/29 06:00:35;;;;;;;4.10;2.87;;;13.60;99.90;;;;;;5110667;28;20851;-82
2022/10/29 06:03:02;;;;;;;3.47;2.50;;;13.50;99.90;;;;;;5111665;28;20655;-83
2022/10/29 06:05:29;;;;;;;3.70;2.43;;;13.40;99.90;;;;;;5111070;28;21050;-82
2022/10/29 06:07:57;;;;;;;6.60;2.33;;;13.40;99.90;;;;;;5109836;28;20623;-83
2022/10/29 06:10:25;;;;;;;2.60;2.40;;;13.50;99.90;;;;;;5110249;28;20715;-83
2022/10/29 06:12:52;;;;;;;2.40;2.20;;;13.40;99.90;;;;;;5110111;28;21489;-83
2022/10/29 06:15:19;;;;;;;2.27;1.83;;;13.40;99.90;;;;;;5110531;28;20619;-82
2022/10/29 06:17:48;;;;;;;2.57;2.10;;;13.40;99.90;;;;;;5110721;28;20968;-83
2022/10/29 06:20:17;;;;;;;1.70;1.60;;;13.30;99.90;;;;;;5110768;28;20611;-82
2022/10/29 06:22:44;;;;;;;2.20;2.10;;;13.50;99.90;;;;;;5110668;28;20678;-83
2022/10/29 06:25:11;;;;;;;3.30;2.83;;;13.50;99.90;;;;;;5110551;28;20621;-83
2022/10/29 06:27:38;;;;;;;6.00;3.60;;;13.40;99.90;;;;;;5109986;28;20647;-83
2022/10/29 06:30:06;;;;;;;2.00;1.80;;;13.40;99.90;;;;;;5110585;28;21077;-83
2022/10/29 06:32:33;;;;;;;4.27;2.97;;;13.40;99.90;;;;;;5110681;28;20714;-83
2022/10/29 06:35:02;;;;;;;2.87;2.60;;;13.30;99.90;;;;;;5110783;28;20689;-84
2022/10/29 06:37:32;;;;;;;2.40;1.87;;;13.30;99.90;;;;;;5109535;28;21189;-83
2022/10/29 06:39:58;;;;;;;1.90;1.77;;;13.30;99.90;;;;;;5110481;28;20989;-84
2022/10/29 06:42:25;;;;;;;2.77;2.57;;;13.40;99.90;;;;;;5110313;28;20616;-83
2022/10/29 06:44:52;;;;;;;5.40;2.50;;;13.30;99.90;;;;;;5110526;28;20611;-83
2022/10/29 06:47:19;;;;;;;2.77;2.53;;;13.50;99.90;;;;;;5109736;28;20607;-83
2022/10/29 06:49:46;;;;;;;3.70;2.10;;;13.70;99.90;;;;;;5110219;28;20687;-82
2022/10/29 06:52:14;;;;;;;5.50;3.67;;;13.70;99.90;;;;;;5110347;28;20670;-82
2022/10/29 06:54:41;;;;;;;2.50;2.30;;;13.60;99.90;;;;;;5108444;28;20647;-83
2022/10/29 06:57:08;;;;;;;2.80;2.60;;;13.60;99.90;;;;;;5109199;28;20611;-83
2022/10/29 06:59:35;;;;;;;3.00;2.10;;;13.60;99.90;;;;;;5109814;28;20623;-83
2022/10/29 07:02:01;;;;;;;2.53;2.33;;;13.50;99.90;;;;;;5110598;28;20658;-82
2022/10/29 07:04:28;;;;;;;3.10;2.67;;;13.70;99.90;;;;;;5110202;28;20604;-83
2022/10/29 07:06:55;;;;;;;3.07;2.53;;;13.60;99.90;;;;;;5108617;28;21204;-83
2022/10/29 07:09:23;;;;;;;2.67;2.30;;;13.60;99.90;;;;;;5109876;28;20659;-82
2022/10/29 07:11:50;;;;;;;3.53;2.30;;;13.70;99.90;;;;;;5110519;28;20611;-82
2022/10/29 07:14:17;;;;;;;2.88;2.58;;;13.70;99.90;;;;;;5109688;28;20754;-82
2022/10/29 07:16:45;;;;;;;3.03;2.13;;;13.70;99.90;;;;;;5109153;28;20202;-82
2022/10/29 07:19:11;;;;;;;4.40;3.28;;;13.90;99.90;;;;;;5109039;28;20743;-82
2022/10/29 07:21:38;;;;;;;3.63;3.10;;;14.10;99.90;;;;;;5109391;28;20200;-83
2022/10/29 07:24:06;;;;;;;4.13;3.83;;;14.00;99.90;;;;;;5109359;28;20676;-82
2022/10/29 07:26:35;;;;;;;3.60;2.40;;;14.00;99.90;;;;;;5109200;28;21352;-82
2022/10/29 07:29:02;;;;;;;2.80;1.90;;;;;;;;;;5109828;27;20766;-82
2022/10/29 07:31:29;;;;;;;4.70;2.13;;;14.00;99.90;;;;;;5110095;28;20607;-83
2022/10/29 07:33:56;;;;;;;2.10;1.90;;;14.10;99.90;;;;;;5110038;28;20620;-83
2022/10/29 07:36:23;;;;;;;2.73;1.83;;;14.20;99.90;;;;;;5109697;28;21304;-82
2022/10/29 07:38:50;;;;;;;4.10;3.40;;;14.20;99.90;;;;;;5110014;28;20758;-83
2022/10/29 07:41:17;;;;;;;2.97;1.53;;;14.30;99.90;;;;;;5109992;28;20748;-82
2022/10/29 07:43:45;;;;;;;2.30;2.20;;;14.40;99.90;;;;;;5109505;28;21101;-82
2022/10/29 07:46:12;;;;;;;3.50;2.73;;;14.60;99.90;;;;;;5109916;28;20771;-82
2022/10/29 07:48:39;;;;;;;2.27;2.10;;;14.80;99.90;;;;;;5109486;28;20615;-84
2022/10/29 07:51:06;;;;;;;2.70;2.00;;;14.80;99.90;;;;;;5109844;28;20727;-83
2022/10/29 07:53:33;;;;;;;2.20;2.00;;;14.90;99.90;;;;;;5109378;28;20668;-82
2022/10/29 07:56:00;;;;;;;3.40;2.20;;;14.90;99.90;;;;;;5109792;28;20651;-83
2022/10/29 07:58:27;;;;;;;4.87;2.07;;;15.00;99.90;;;;;;5109188;28;21006;-83
2022/10/29 08:00:55;;;;;;;2.03;1.80;;;15.00;99.90;;;;;;5109675;28;20723;-83
2022/10/29 08:03:22;;;;;;;2.10;1.77;;;15.10;99.90;;;;;;5109471;28;20696;-83
2022/10/29 08:05:49;;;;;;;3.80;2.57;;;15.30;99.90;;;;;;5109034;28;20708;-83
2022/10/29 08:08:17;;;;;;;2.87;2.23;;;15.30;99.90;;;;;;5108356;28;20615;-83
2022/10/29 08:10:44;;;;;;;2.37;2.17;;;15.60;99.90;;;;;;5108833;28;20682;-83
2022/10/29 08:13:11;;;;;;;3.13;2.20;;;15.70;99.90;;;;;;5109531;28;20712;-83
2022/10/29 08:15:38;;;;;;;5.32;2.90;;;15.80;99.90;;;;;;5107916;28;21268;-82
2022/10/29 08:18:14;;;;;;;4.13;3.20;;;15.90;99.90;;;;;;5107803;28;20218;-82
2022/10/29 08:20:41;;;;;;;2.07;1.90;;;15.90;99.90;;;;;;5108547;28;20662;-83
2022/10/29 08:23:08;;;;;;;3.93;2.33;;;16.20;99.90;;;;;;5108582;28;21039;-83
2022/10/29 08:25:40;;;;;;;2.83;2.07;;;16.30;99.90;;;;;;5108459;28;20738;-83
2022/10/29 08:28:08;;;;;;;2.10;1.90;;;16.50;99.90;;;;;;5108061;28;20615;-82
2022/10/29 08:30:35;;;;;;;4.53;2.83;;;16.70;99.90;;;;;;5108187;28;21108;-82
2022/10/29 08:33:02;;;;;;;3.33;2.77;;;;;;;;;;5108960;28;20657;-82
2022/10/29 08:35:31;;;;;;;2.10;1.90;;;17.00;99.90;;;;;;5108297;28;20615;-83
2022/10/29 08:37:58;;;;;;;8.63;1.90;;;17.10;99.90;;;;;;5107830;28;20668;-83
2022/10/29 08:40:30;;;;;;;1.60;1.50;;;17.30;99.90;;;;;;5108651;28;21204;-83
2022/10/29 08:43:22;;;;;;;1.73;1.63;;;17.50;99.80;;;;;;5108903;28;20913;-83
2022/10/29 08:45:50;;;;;;;3.13;1.63;;;17.50;99.50;;;;;;5109013;28;20697;-82
2022/10/29 08:48:30;;;;;;;2.20;2.00;;;17.60;99.60;;;;;;5108145;28;21185;-82
2022/10/29 08:51:03;;;;;;;1.73;1.63;;;17.70;98.80;;;;;;5108222;28;20695;-83
2022/10/29 08:53:36;;;;;;;2.53;2.10;;;17.90;99.10;;;;;;5107632;28;21355;-82
2022/10/29 08:56:05;;;;;;;2.40;2.20;;;18.00;98.50;;;;;;5107562;28;20724;-82
2022/10/29 08:58:37;;;;;;;3.17;2.20;;;18.00;98.80;;;;;;5107250;28;20186;-82
2022/10/29 09:01:10;;;;;;;2.27;1.70;;;18.10;98.40;;;;;;5108452;28;20608;-82
2022/10/29 09:03:38;;;;;;;3.57;1.80;;;18.30;97.60;;;;;;5108313;28;20620;-82
2022/10/29 09:06:13;;;;;;;3.50;2.07;;;18.40;97.90;;;;;;5107719;28;20965;-83
2022/10/29 09:08:52;;;;;;;2.30;2.10;;;18.40;97.30;;;;;;5108547;28;20630;-83
2022/10/29 09:11:43;;;;;;;4.00;1.90;;;18.50;97.10;;;;;;5108299;28;20703;-84
2022/10/29 09:14:28;;;;;;;3.97;2.13;;;18.50;96.60;;;;;;5108906;28;21244;-83
2022/10/29 09:17:02;;;;;;;4.07;2.23;;;18.60;96.70;;;;;;5107613;28;20611;-82
2022/10/29 09:19:40;;;;;;;2.10;1.60;;;18.70;96.20;;;;;;5108289;28;20611;-83
2022/10/29 09:22:20;;;;;;;4.27;1.40;;;18.90;96.00;;;;;;5108342;28;20623;-83
2022/10/29 09:24:54;;;;;;;3.03;1.70;;;18.90;96.00;;;;;;5107440;28;20718;-82
2022/10/29 09:27:29;;;;;;;2.30;2.10;;;18.90;96.30;;;;;;5107943;28;20627;-83
2022/10/29 09:30:04;;;;;;;2.13;1.93;;;18.90;96.10;;;;;;5108795;28;20651;-82
2022/10/29 09:32:35;;;;;;;1.50;1.40;;;19.10;96.10;;;;;;5111953;28;20642;-83
2022/10/29 09:35:06;;;;;;;2.70;2.33;;;19.20;95.90;;;;;;5091442;28;20624;-83
2022/10/29 09:37:42;;;;;;;4.57;1.60;;;19.10;96.60;;;;;;5090987;28;21182;-83
2022/10/29 09:40:17;;;;;;;5.13;3.67;;;19.30;96.40;;;;;;5091645;28;20616;-82
2022/10/29 09:42:47;;;;;;;2.30;2.10;;;19.30;95.60;;;;;;5091753;28;20950;-83
2022/10/29 09:45:18;;;;;;;1.90;1.80;;;19.30;96.20;;;;;;5091994;28;20612;-82
2022/10/29 09:47:53;;;;;;;2.33;2.00;;;19.20;96.30;;;;;;5089846;28;21012;-82
2022/10/29 09:50:29;;;;;;;2.43;1.80;;;19.20;96.40;;;;;;5091932;28;20790;-83
2022/10/29 09:52:57;;;;;;;8.07;2.17;;;19.20;96.40;;;;;;5090467;28;20635;-84
2022/10/29 09:55:28;;;;;;;3.60;2.00;;;19.20;96.30;;;;;;5091257;28;20616;-82
2022/10/29 09:57:57;;;;;;;4.65;2.67;;;19.40;96.40;;;;;;5089850;28;20733;-83
2022/10/29 10:00:26;;;;;;;4.07;2.60;;;19.40;96.70;;;;;;5110209;28;20484;-83
2022/10/29 10:02:59;;;;;;;2.37;2.17;;;19.50;97.00;;;;;;5111327;28;20608;-84
2022/10/29 10:05:28;;;;;;;4.83;2.30;;;19.50;97.30;;;;;;5111487;28;20689;-83
2022/10/29 10:08:08;;;;;;;2.27;2.07;;;19.50;96.50;;;;;;5109989;28;20624;-82
2022/10/29 10:10:39;;;;;;;4.03;3.07;;;19.70;96.00;;;;;;5108539;28;20753;-83
2022/10/29 10:13:12;;;;;;;3.10;2.90;;;19.80;95.80;;;;;;5110933;28;21307;-82
2022/10/29 10:15:39;;;;;;;2.77;1.90;;;19.70;96.10;;;;;;5108997;28;20642;-83
2022/10/29 10:18:15;;;;;;;2.87;2.60;;;19.70;96.30;;;;;;5109888;28;21177;-83
2022/10/29 10:20:45;;;;;;;5.73;2.03;;;19.80;95.90;;;;;;5109112;28;21027;-82
2022/10/29 10:23:27;;;;;;;4.43;2.20;;;19.80;96.10;;;;;;5104172;28;20728;-82
2022/10/29 10:25:56;;;;;;;2.70;1.90;;;20.00;95.90;;;;;;5090551;28;20601;-82
2022/10/29 10:28:24;;;;;;;2.20;2.00;;;20.10;95.80;;;;;;5089979;28;21241;-82
2022/10/29 10:31:13;;;;;;;2.57;2.37;;;20.20;95.80;;;;;;5090628;28;20648;-82
2022/10/29 10:33:52;;;;;;;6.30;2.07;;;20.10;96.20;;;;;;5100148;28;21026;-83
2022/10/29 10:36:22;;;;;;;3.30;2.10;;;20.10;96.50;;;;;;5110123;28;21059;-83
2022/10/29 10:38:53;;;;;;;4.50;4.10;;;20.00;96.30;;;;;;5110872;28;20677;-83
2022/10/29 10:41:25;;;;;;;2.00;1.90;;;20.20;96.00;;;;;;5110955;28;20616;-83
2022/10/29 10:43:54;;;;;;;2.40;2.10;;;20.30;95.60;;;;;;5109180;28;20708;-83
2022/10/29 10:46:24;;;;;;;3.93;2.43;;;20.50;95.10;;;;;;5110423;28;20759;-83
2022/10/29 10:49:04;;;;;;;1.80;1.70;;;20.60;95.10;;;;;;5110846;28;21090;-82
2022/10/29 10:51:35;;;;;;;6.70;2.30;;;20.50;94.80;;;;;;5110705;28;21033;-83
2022/10/29 10:54:23;;;;;;;2.60;2.00;;;20.50;95.50;;;;;;5109534;28;20675;-82
2022/10/29 10:56:57;;;;;;;3.03;2.43;;;20.50;95.50;;;;;;5109361;28;20673;-83
2022/10/29 10:59:26;;;;;;;3.87;3.53;;;20.50;95.60;;;;;;5108076;28;20607;-83
2022/10/29 11:01:54;;;;;;;3.30;2.37;;;20.70;95.40;;;;;;5109859;28;20643;-83
2022/10/29 11:04:27;;;;;;;2.60;2.10;;;20.80;95.10;;;;;;5109939;28;20709;-83
2022/10/29 11:06:58;;;;;;;3.20;2.20;;;20.70;95.20;;;;;;5108454;28;20801;-83
2022/10/29 11:09:32;;;;;;;2.93;2.03;;;20.70;95.30;;;;;;5109828;28;20688;-83
2022/10/29 11:12:04;;;;;;;6.90;2.27;;;20.60;95.60;;;;;;5107127;28;21192;-83
2022/10/29 11:14:35;;;;;;;4.50;2.57;;;21.00;94.90;;;;;;5110667;28;20715;-83
2022/10/29 11:17:04;;;;;;;3.13;2.60;;;21.00;95.10;;;;;;5109726;28;20660;-83
2022/10/29 11:19:37;;;;;;;2.80;2.20;;;20.90;95.60;;;;;;5110098;28;20643;-83
2022/10/29 11:22:13;;;;;;;5.57;2.50;;;20.90;95.70;;;;;;5110389;28;20624;-83
2022/10/29 11:24:48;;;;;;;1.70;1.60;;;21.00;95.30;;;;;;5091842;28;21011;-83
2022/10/29 11:27:26;;;;;;;1.87;1.77;;;21.10;95.30;;;;;;5088736;28;20724;-82
2022/10/29 11:30:02;;;;;;;1.67;1.53;;;21.10;94.90;;;;;;5089889;28;21018;-83
2022/10/29 11:32:38;;;;;;;1.60;1.43;;;21.30;93.40;;;;;;5095105;28;20624;-83
2022/10/29 11:35:11;;;;;;;5.90;1.70;;;21.40;94.20;;;;;;5109696;28;20615;-82
2022/10/29 11:37:43;;;;;;;5.47;2.10;;;21.50;94.20;;;;;;5106477;28;20622;-82
2022/10/29 11:40:16;;;;;;;2.10;1.53;;;21.50;93.90;;;;;;5108674;28;20710;-82
2022/10/29 11:42:43;;;;;;;3.43;1.73;;;21.50;94.70;;;;;;5109047;28;20635;-83
2022/10/29 11:45:14;;;;;;;1.70;1.60;;;21.50;93.50;;;;;;5109553;28;20802;-82
2022/10/29 11:48:03;;;;;;;1.97;1.50;;;21.50;92.90;;;;;;5108399;28;20635;-83
2022/10/29 11:50:38;;;;;;;5.43;2.00;;;21.60;94.40;;;;;;5109170;28;20691;-84
2022/10/29 11:53:18;;;;;;;2.23;2.03;;;21.50;92.50;;;;;;5107910;28;20622;-83
2022/10/29 11:55:56;;;;;;;1.33;1.23;;;21.80;92.30;;;;;;5108749;28;21232;-83
2022/10/29 11:58:33;;;;;;;3.93;2.50;;;21.80;91.50;;;;;;5108026;28;20721;-83
2022/10/29 12:01:08;;;;;;;4.13;1.80;;;21.80;91.50;;;;;;5108294;28;20611;-82
2022/10/29 12:04:03;;;;;;;3.63;1.87;;;21.80;91.80;;;;;;5107269;28;20718;-83
2022/10/29 12:06:38;;;;;;;2.07;1.43;;;21.80;93.10;;;;;;5105202;28;21181;-84
2022/10/29 12:09:37;;;;;;;2.10;1.23;;;21.90;92.30;;;;;;5108820;28;20611;-83
2022/10/29 12:12:12;;;;;;;1.97;1.77;;;22.00;92.10;;;;;;5106052;28;20671;-83
2022/10/29 12:14:47;;;;;;;2.03;1.70;;;22.10;92.00;;;;;;5109100;28;21223;-82
2022/10/29 12:17:19;;;;;;;3.83;1.80;;;22.10;91.10;;;;;;5108155;28;20678;-82
2022/10/29 12:19:51;;;;;;;1.57;1.47;;;22.20;89.30;;;;;;5108612;28;21196;-83
2022/10/29 12:22:30;;;;;;;2.63;1.43;;;22.30;89.60;;;;;;5108602;28;20632;-83
2022/10/29 12:25:24;;;;;;;2.40;1.70;;;22.30;90.10;;;;;;5088439;28;20691;-83
2022/10/29 12:28:03;;;;;;;3.80;1.93;;;22.30;89.70;;;;;;5087281;28;21072;-83
2022/10/29 12:30:34;;;;;;;2.23;1.80;;;22.40;88.70;;;;;;5088010;28;20699;-84
2022/10/29 12:33:10;;;;;;;2.00;1.73;;;22.30;88.70;;;;;;5092294;28;21244;-83
2022/10/29 12:35:44;;;;;;;1.37;1.23;;;22.30;88.20;;;;;;5108645;28;20619;-82
2022/10/29 12:38:27;;;;;;;1.70;1.37;;;22.30;90.30;;;;;;5107821;28;20666;-83
2022/10/29 12:41:00;;;;;;;2.80;1.50;;;22.30;88.50;;;;;;5108694;28;20643;-83
2022/10/29 12:43:31;;;;;;;1.70;1.53;;;22.40;88.50;;;;;;5108352;28;21213;-83
2022/10/29 12:46:07;;;;;;;4.40;1.77;;;22.40;88.70;;;;;;5108932;28;21039;-83
2022/10/29 12:48:41;;;;;;;2.80;1.83;;;22.40;88.30;;;;;;5107539;28;20669;-83
2022/10/29 12:51:16;;;;;;;2.67;1.93;;;22.50;90.20;;;;;;5108289;28;20662;-83
2022/10/29 12:53:49;;;;;;;2.40;2.10;;;22.50;91.20;;;;;;5108476;28;20941;-83
2022/10/29 12:56:17;;;;;;;1.50;1.40;;;22.50;91.40;;;;;;5107020;28;20632;-83
2022/10/29 12:58:51;;;;;;;3.23;2.90;;;22.50;90.50;;;;;;5107237;28;20676;-83
2022/10/29 13:01:43;;;;;;;9.73;2.53;;;22.60;90.90;;;;;;5107053;28;20656;-83
2022/10/29 13:04:26;;;;;;;3.37;1.67;;;22.60;91.40;;;;;;5091918;28;21268;-83
2022/10/29 13:07:01;;;;;;;2.23;2.03;;;22.60;91.80;;;;;;5109516;28;20615;-83